sensor_id;sensor_type;location;lat;lon;timestamp;P1;durP1;ratioP1;P2;durP2;ratioP2
62931;SDS011;49037;41.898;25.004;2023-09-19T00:00:41;5.65;;;2.78;;
62931;SDS011;49037;41.898;25.004;2023-09-19T00:03:08;5.32;;;3.47;;
62931;SDS011;49037;41.898;25.004;2023-09-19T00:05:48;5.63;;;3.05;;
62931;SDS011;49037;41.898;25.004;2023-09-19T00:08:20;4.95;;;3.20;;
62931;SDS011;49037;41.898;25.004;2023-09-19T00:10:47;4.90;;;3.10;;
62931;SDS011;49037;41.898;25.004;2023-09-19T00:13:21;4.85;;;3.10;;
62931;SDS011;49037;41.898;25.004;2023-09-19T00:15:49;3.63;;;3.20;;
62931;SDS011;49037;41.898;25.004;2023-09-19T00:18:20;5.93;;;3.10;;
62931;SDS011;49037;41.898;25.004;2023-09-19T00:20:47;3.85;;;2.92;;
62931;SDS011;49037;41.898;25.004;2023-09-19T00:23:12;4.15;;;2.92;;
62931;SDS011;49037;41.898;25.004;2023-09-19T00:25:38;5.05;;;3.00;;
62931;SDS011;49037;41.898;25.004;2023-09-19T00:28:05;4.55;;;3.10;;
62931;SDS011;49037;41.898;25.004;2023-09-19T00:30:32;3.90;;;2.65;;
62931;SDS011;49037;41.898;25.004;2023-09-19T00:32:58;3.92;;;3.20;;
62931;SDS011;49037;41.898;25.004;2023-09-19T00:35:26;4.47;;;3.33;;
62931;SDS011;49037;41.898;25.004;2023-09-19T00:37:52;5.38;;;3.50;;
62931;SDS011;49037;41.898;25.004;2023-09-19T00:40:20;5.32;;;3.28;;
62931;SDS011;49037;41.898;25.004;2023-09-19T00:42:46;5.40;;;3.13;;
62931;SDS011;49037;41.898;25.004;2023-09-19T00:45:15;4.15;;;3.00;;
62931;SDS011;49037;41.898;25.004;2023-09-19T00:47:43;4.60;;;3.30;;
62931;SDS011;49037;41.898;25.004;2023-09-19T00:50:11;5.07;;;3.40;;
62931;SDS011;49037;41.898;25.004;2023-09-19T00:52:43;6.93;;;3.40;;
62931;SDS011;49037;41.898;25.004;2023-09-19T00:55:15;6.63;;;3.20;;
62931;SDS011;49037;41.898;25.004;2023-09-19T00:57:43;4.07;;;3.30;;
62931;SDS011;49037;41.898;25.004;2023-09-19T01:00:18;4.53;;;3.38;;
62931;SDS011;49037;41.898;25.004;2023-09-19T01:02:46;4.35;;;3.15;;
62931;SDS011;49037;41.898;25.004;2023-09-19T01:05:25;3.90;;;3.28;;
62931;SDS011;49037;41.898;25.004;2023-09-19T01:07:55;4.55;;;3.10;;
62931;SDS011;49037;41.898;25.004;2023-09-19T01:10:51;7.00;;;3.42;;
62931;SDS011;49037;41.898;25.004;2023-09-19T01:16:53;4.72;;;3.50;;
62931;SDS011;49037;41.898;25.004;2023-09-19T01:32:08;4.80;;;3.20;;
62931;SDS011;49037;41.898;25.004;2023-09-19T01:35:00;3.90;;;2.90;;
62931;SDS011;49037;41.898;25.004;2023-09-19T01:37:29;4.55;;;3.00;;
62931;SDS011;49037;41.898;25.004;2023-09-19T01:40:21;6.38;;;3.20;;
62931;SDS011;49037;41.898;25.004;2023-09-19T01:46:12;3.30;;;2.67;;
62931;SDS011;49037;41.898;25.004;2023-09-19T01:49:04;6.18;;;3.30;;
62931;SDS011;49037;41.898;25.004;2023-09-19T01:51:53;3.13;;;2.83;;
62931;SDS011;49037;41.898;25.004;2023-09-19T01:54:37;4.80;;;3.03;;
62931;SDS011;49037;41.898;25.004;2023-09-19T01:57:29;5.43;;;3.58;;
62931;SDS011;49037;41.898;25.004;2023-09-19T02:00:02;4.15;;;3.17;;
62931;SDS011;49037;41.898;25.004;2023-09-19T02:02:35;6.15;;;3.00;;
62931;SDS011;49037;41.898;25.004;2023-09-19T02:05:02;8.07;;;3.17;;
62931;SDS011;49037;41.898;25.004;2023-09-19T02:07:29;6.82;;;3.13;;
62931;SDS011;49037;41.898;25.004;2023-09-19T02:09:56;4.85;;;3.25;;
62931;SDS011;49037;41.898;25.004;2023-09-19T02:12:53;5.28;;;3.30;;
62931;SDS011;49037;41.898;25.004;2023-09-19T02:15:19;4.82;;;2.92;;
62931;SDS011;49037;41.898;25.004;2023-09-19T02:17:45;4.90;;;3.20;;
62931;SDS011;49037;41.898;25.004;2023-09-19T02:20:11;4.32;;;3.33;;
62931;SDS011;49037;41.898;25.004;2023-09-19T02:22:57;5.05;;;3.15;;
62931;SDS011;49037;41.898;25.004;2023-09-19T02:25:24;4.60;;;3.22;;
62931;SDS011;49037;41.898;25.004;2023-09-19T02:27:54;4.32;;;3.15;;
62931;SDS011;49037;41.898;25.004;2023-09-19T02:30:24;5.32;;;3.03;;
62931;SDS011;49037;41.898;25.004;2023-09-19T02:32:55;6.00;;;2.97;;
62931;SDS011;49037;41.898;25.004;2023-09-19T02:35:23;5.10;;;2.95;;
62931;SDS011;49037;41.898;25.004;2023-09-19T02:37:54;4.13;;;3.20;;
62931;SDS011;49037;41.898;25.004;2023-09-19T02:40:21;5.63;;;3.08;;
62931;SDS011;49037;41.898;25.004;2023-09-19T02:43:15;3.38;;;2.70;;
62931;SDS011;49037;41.898;25.004;2023-09-19T02:45:40;3.97;;;2.85;;
62931;SDS011;49037;41.898;25.004;2023-09-19T02:48:09;4.63;;;3.10;;
62931;SDS011;49037;41.898;25.004;2023-09-19T02:50:57;5.18;;;3.00;;
62931;SDS011;49037;41.898;25.004;2023-09-19T02:53:26;4.78;;;3.22;;
62931;SDS011;49037;41.898;25.004;2023-09-19T02:55:54;5.10;;;3.25;;
62931;SDS011;49037;41.898;25.004;2023-09-19T02:58:21;4.93;;;3.15;;
62931;SDS011;49037;41.898;25.004;2023-09-19T03:00:50;4.35;;;3.08;;
62931;SDS011;49037;41.898;25.004;2023-09-19T03:03:16;3.25;;;2.70;;
62931;SDS011;49037;41.898;25.004;2023-09-19T03:05:42;4.35;;;3.28;;
62931;SDS011;49037;41.898;25.004;2023-09-19T03:10:40;6.18;;;3.00;;
62931;SDS011;49037;41.898;25.004;2023-09-19T03:13:11;5.95;;;3.35;;
62931;SDS011;49037;41.898;25.004;2023-09-19T03:15:59;4.07;;;3.10;;
62931;SDS011;49037;41.898;25.004;2023-09-19T03:18:25;3.28;;;2.88;;
62931;SDS011;49037;41.898;25.004;2023-09-19T03:20:54;4.57;;;3.22;;
62931;SDS011;49037;41.898;25.004;2023-09-19T03:23:44;6.38;;;3.10;;
62931;SDS011;49037;41.898;25.004;2023-09-19T03:26:16;3.97;;;3.08;;
62931;SDS011;49037;41.898;25.004;2023-09-19T03:29:03;5.05;;;3.22;;
62931;SDS011;49037;41.898;25.004;2023-09-19T03:31:32;4.93;;;3.40;;
62931;SDS011;49037;41.898;25.004;2023-09-19T03:34:04;6.57;;;3.28;;
62931;SDS011;49037;41.898;25.004;2023-09-19T03:36:30;4.38;;;2.95;;
62931;SDS011;49037;41.898;25.004;2023-09-19T03:38:55;5.53;;;3.08;;
62931;SDS011;49037;41.898;25.004;2023-09-19T03:41:21;4.75;;;3.15;;
62931;SDS011;49037;41.898;25.004;2023-09-19T03:43:50;3.78;;;2.72;;
62931;SDS011;49037;41.898;25.004;2023-09-19T03:46:19;4.13;;;3.20;;
62931;SDS011;49037;41.898;25.004;2023-09-19T03:48:57;6.95;;;2.80;;
62931;SDS011;49037;41.898;25.004;2023-09-19T03:51:23;6.32;;;3.22;;
62931;SDS011;49037;41.898;25.004;2023-09-19T03:53:51;4.97;;;2.97;;
62931;SDS011;49037;41.898;25.004;2023-09-19T03:56:17;5.05;;;3.10;;
62931;SDS011;49037;41.898;25.004;2023-09-19T03:58:42;5.28;;;3.20;;
62931;SDS011;49037;41.898;25.004;2023-09-19T04:01:28;6.75;;;2.92;;
62931;SDS011;49037;41.898;25.004;2023-09-19T04:03:58;3.80;;;3.22;;
62931;SDS011;49037;41.898;25.004;2023-09-19T04:06:35;6.38;;;3.38;;
62931;SDS011;49037;41.898;25.004;2023-09-19T04:09:30;4.78;;;3.05;;
62931;SDS011;49037;41.898;25.004;2023-09-19T04:11:56;6.65;;;3.58;;
62931;SDS011;49037;41.898;25.004;2023-09-19T04:14:21;5.60;;;3.13;;
62931;SDS011;49037;41.898;25.004;2023-09-19T04:16:47;4.70;;;3.38;;
62931;SDS011;49037;41.898;25.004;2023-09-19T04:19:15;5.07;;;3.17;;
62931;SDS011;49037;41.898;25.004;2023-09-19T04:21:42;4.60;;;3.38;;
62931;SDS011;49037;41.898;25.004;2023-09-19T04:24:07;4.40;;;3.05;;
62931;SDS011;49037;41.898;25.004;2023-09-19T04:26:33;4.53;;;3.40;;
62931;SDS011;49037;41.898;25.004;2023-09-19T04:29:01;4.78;;;3.17;;
62931;SDS011;49037;41.898;25.004;2023-09-19T04:31:31;3.90;;;3.08;;
62931;SDS011;49037;41.898;25.004;2023-09-19T04:33:57;5.57;;;3.50;;
62931;SDS011;49037;41.898;25.004;2023-09-19T04:36:26;5.90;;;3.50;;
62931;SDS011;49037;41.898;25.004;2023-09-19T04:38:51;5.65;;;3.13;;
62931;SDS011;49037;41.898;25.004;2023-09-19T04:41:25;5.57;;;3.38;;
62931;SDS011;49037;41.898;25.004;2023-09-19T04:43:51;4.93;;;3.17;;
62931;SDS011;49037;41.898;25.004;2023-09-19T04:46:19;5.30;;;3.17;;
62931;SDS011;49037;41.898;25.004;2023-09-19T04:48:45;4.65;;;3.33;;
62931;SDS011;49037;41.898;25.004;2023-09-19T04:51:10;5.22;;;3.20;;
62931;SDS011;49037;41.898;25.004;2023-09-19T04:53:36;4.95;;;3.22;;
62931;SDS011;49037;41.898;25.004;2023-09-19T04:56:02;5.80;;;3.28;;
62931;SDS011;49037;41.898;25.004;2023-09-19T04:58:32;4.95;;;3.53;;
62931;SDS011;49037;41.898;25.004;2023-09-19T05:01:01;5.95;;;3.22;;
62931;SDS011;49037;41.898;25.004;2023-09-19T05:03:29;6.15;;;3.28;;
62931;SDS011;49037;41.898;25.004;2023-09-19T05:05:56;5.63;;;3.65;;
62931;SDS011;49037;41.898;25.004;2023-09-19T05:08:22;4.20;;;3.13;;
62931;SDS011;49037;41.898;25.004;2023-09-19T05:10:49;4.63;;;3.63;;
62931;SDS011;49037;41.898;25.004;2023-09-19T05:13:15;4.60;;;2.92;;
62931;SDS011;49037;41.898;25.004;2023-09-19T05:15:40;4.70;;;3.13;;
62931;SDS011;49037;41.898;25.004;2023-09-19T05:18:08;5.00;;;3.47;;
62931;SDS011;49037;41.898;25.004;2023-09-19T05:20:34;5.90;;;3.28;;
62931;SDS011;49037;41.898;25.004;2023-09-19T05:23:06;5.35;;;3.40;;
62931;SDS011;49037;41.898;25.004;2023-09-19T05:25:37;4.75;;;3.05;;
62931;SDS011;49037;41.898;25.004;2023-09-19T05:28:07;3.35;;;2.92;;
62931;SDS011;49037;41.898;25.004;2023-09-19T05:30:36;7.05;;;3.17;;
62931;SDS011;49037;41.898;25.004;2023-09-19T05:33:16;5.32;;;3.20;;
62931;SDS011;49037;41.898;25.004;2023-09-19T05:36:01;4.20;;;3.22;;
62931;SDS011;49037;41.898;25.004;2023-09-19T05:38:26;4.03;;;3.03;;
62931;SDS011;49037;41.898;25.004;2023-09-19T05:40:53;4.75;;;2.92;;
62931;SDS011;49037;41.898;25.004;2023-09-19T05:43:19;6.55;;;3.28;;
62931;SDS011;49037;41.898;25.004;2023-09-19T05:45:45;4.30;;;3.13;;
62931;SDS011;49037;41.898;25.004;2023-09-19T05:48:14;4.15;;;3.03;;
62931;SDS011;49037;41.898;25.004;2023-09-19T05:50:41;4.78;;;3.10;;
62931;SDS011;49037;41.898;25.004;2023-09-19T05:53:07;6.07;;;3.65;;
62931;SDS011;49037;41.898;25.004;2023-09-19T05:58:02;4.38;;;3.10;;
62931;SDS011;49037;41.898;25.004;2023-09-19T06:00:28;4.88;;;3.60;;
62931;SDS011;49037;41.898;25.004;2023-09-19T06:02:57;5.93;;;3.15;;
62931;SDS011;49037;41.898;25.004;2023-09-19T06:05:24;5.35;;;3.30;;
62931;SDS011;49037;41.898;25.004;2023-09-19T06:07:52;3.78;;;2.83;;
62931;SDS011;49037;41.898;25.004;2023-09-19T06:10:17;4.13;;;3.00;;
62931;SDS011;49037;41.898;25.004;2023-09-19T06:12:43;3.75;;;3.08;;
62931;SDS011;49037;41.898;25.004;2023-09-19T06:15:15;6.78;;;4.00;;
62931;SDS011;49037;41.898;25.004;2023-09-19T06:17:46;4.38;;;3.03;;
62931;SDS011;49037;41.898;25.004;2023-09-19T06:20:13;6.10;;;3.42;;
62931;SDS011;49037;41.898;25.004;2023-09-19T06:22:43;5.85;;;3.10;;
62931;SDS011;49037;41.898;25.004;2023-09-19T06:25:09;5.07;;;3.33;;
62931;SDS011;49037;41.898;25.004;2023-09-19T06:27:44;5.00;;;3.63;;
62931;SDS011;49037;41.898;25.004;2023-09-19T06:30:10;4.38;;;3.35;;
62931;SDS011;49037;41.898;25.004;2023-09-19T06:32:38;4.90;;;3.30;;
62931;SDS011;49037;41.898;25.004;2023-09-19T06:35:04;5.40;;;3.45;;
62931;SDS011;49037;41.898;25.004;2023-09-19T06:37:32;6.63;;;3.78;;
62931;SDS011;49037;41.898;25.004;2023-09-19T06:40:00;7.07;;;4.18;;
62931;SDS011;49037;41.898;25.004;2023-09-19T06:42:28;21.08;;;9.88;;
62931;SDS011;49037;41.898;25.004;2023-09-19T06:45:09;11.77;;;7.57;;
62931;SDS011;49037;41.898;25.004;2023-09-19T06:48:06;10.80;;;5.65;;
62931;SDS011;49037;41.898;25.004;2023-09-19T06:50:53;9.82;;;4.43;;
62931;SDS011;49037;41.898;25.004;2023-09-19T06:53:22;5.97;;;4.25;;
62931;SDS011;49037;41.898;25.004;2023-09-19T14:35:40;7.72;;;4.82;;
62931;SDS011;49037;41.898;25.004;2023-09-19T15:49:08;3.40;;;2.40;;
62931;SDS011;49037;41.898;25.004;2023-09-19T15:52:02;4.22;;;3.45;;
62931;SDS011;49037;41.898;25.004;2023-09-19T15:58:16;5.70;;;3.67;;
62931;SDS011;49037;41.898;25.004;2023-09-19T17:01:48;4.28;;;3.63;;
62931;SDS011;49037;41.898;25.004;2023-09-19T19:54:13;5.25;;;3.60;;
62931;SDS011;49037;41.898;25.004;2023-09-19T19:57:29;4.47;;;3.30;;
62931;SDS011;49037;41.898;25.004;2023-09-19T20:04:08;4.68;;;3.25;;
62931;SDS011;49037;41.898;25.004;2023-09-19T20:06:52;4.43;;;3.38;;
62931;SDS011;49037;41.898;25.004;2023-09-19T20:17:13;4.82;;;3.47;;
62931;SDS011;49037;41.898;25.004;2023-09-19T20:33:39;5.80;;;3.50;;
62931;SDS011;49037;41.898;25.004;2023-09-19T20:36:55;5.13;;;3.30;;
62931;SDS011;49037;41.898;25.004;2023-09-19T20:46:47;5.88;;;3.60;;
62931;SDS011;49037;41.898;25.004;2023-09-19T20:49:34;4.20;;;3.20;;
62931;SDS011;49037;41.898;25.004;2023-09-19T20:56:44;3.55;;;3.15;;
62931;SDS011;49037;41.898;25.004;2023-09-19T20:59:19;6.13;;;3.55;;
62931;SDS011;49037;41.898;25.004;2023-09-19T21:02:02;3.60;;;3.10;;
62931;SDS011;49037;41.898;25.004;2023-09-19T21:04:28;4.95;;;3.38;;
62931;SDS011;49037;41.898;25.004;2023-09-19T21:06:56;6.38;;;3.35;;
62931;SDS011;49037;41.898;25.004;2023-09-19T21:33:34;6.18;;;3.40;;
62931;SDS011;49037;41.898;25.004;2023-09-19T21:39:48;4.25;;;3.30;;
62931;SDS011;49037;41.898;25.004;2023-09-19T21:52:58;6.10;;;3.50;;
62931;SDS011;49037;41.898;25.004;2023-09-19T21:55:35;5.55;;;3.30;;
62931;SDS011;49037;41.898;25.004;2023-09-19T22:01:05;5.78;;;3.70;;
62931;SDS011;49037;41.898;25.004;2023-09-19T22:36:44;3.58;;;3.28;;
62931;SDS011;49037;41.898;25.004;2023-09-19T22:42:16;6.07;;;3.20;;
62931;SDS011;49037;41.898;25.004;2023-09-19T22:48:40;4.90;;;3.42;;
62931;SDS011;49037;41.898;25.004;2023-09-19T22:57:34;6.22;;;3.50;;
62931;SDS011;49037;41.898;25.004;2023-09-19T23:00:17;3.78;;;3.20;;
62931;SDS011;49037;41.898;25.004;2023-09-19T23:02:53;4.55;;;3.42;;
62931;SDS011;49037;41.898;25.004;2023-09-19T23:05:46;4.80;;;3.60;;
62931;SDS011;49037;41.898;25.004;2023-09-19T23:08:19;3.55;;;3.08;;
62931;SDS011;49037;41.898;25.004;2023-09-19T23:10:45;4.57;;;3.70;;
62931;SDS011;49037;41.898;25.004;2023-09-19T23:13:34;6.03;;;3.60;;
62931;SDS011;49037;41.898;25.004;2023-09-19T23:16:25;5.50;;;4.00;;
62931;SDS011;49037;41.898;25.004;2023-09-19T23:19:00;5.05;;;3.65;;
62931;SDS011;49037;41.898;25.004;2023-09-19T23:21:41;4.22;;;3.30;;
62931;SDS011;49037;41.898;25.004;2023-09-19T23:24:54;4.05;;;3.65;;
62931;SDS011;49037;41.898;25.004;2023-09-19T23:27:32;4.45;;;3.20;;
62931;SDS011;49037;41.898;25.004;2023-09-19T23:30:02;5.43;;;3.38;;
62931;SDS011;49037;41.898;25.004;2023-09-19T23:32:41;4.93;;;3.45;;
62931;SDS011;49037;41.898;25.004;2023-09-19T23:35:37;6.43;;;3.60;;
62931;SDS011;49037;41.898;25.004;2023-09-19T23:38:06;3.80;;;3.38;;
62931;SDS011;49037;41.898;25.004;2023-09-19T23:43:59;4.10;;;3.70;;
62931;SDS011;49037;41.898;25.004;2023-09-19T23:52:59;4.22;;;3.20;;
